Time;durP1;ratioP1;P1;durP2;ratioP2;P2;SDS_P1;SDS_P2;PMS_P1;PMS_P2;Temp;Humidity;BMP_temperature;BMP_pressure;BME280_temperature;BME280_humidity;BME280_pressure;Samples;Min_cycle;Max_cycle;Signal;HPM_P1;HPM_P2
2023/01/11 00:01:14;;;;;;;13.18;9.35;;;;;;;10.44;100.00;100445.31;2614911;36;20038;-59
2023/01/11 00:03:42;;;;;;;12.48;8.65;;;;;;;10.52;100.00;100451.63;2614594;36;20424;-59
2023/01/11 00:06:13;;;;;;;17.27;9.20;;;;;;;10.54;100.00;100443.44;2614052;31;20030;-59
2023/01/11 00:08:44;;;;;;;15.18;8.93;;;;;;;10.62;100.00;100445.38;2614697;36;20038;-60
2023/01/11 00:11:15;;;;;;;13.80;8.68;;;;;;;10.72;100.00;100443.50;2615141;31;20034;-59
2023/01/11 00:13:44;;;;;;;12.30;8.25;;;;;;;10.69;100.00;100447.34;2614989;31;20547;-59
2023/01/11 00:16:13;;;;;;;16.58;9.07;;;;;;;10.75;100.00;100429.75;2614382;36;20057;-58
2023/01/11 00:26:13;;;;;;;12.73;8.60;;;;;;;10.86;100.00;100432.25;2612781;36;19951;-59
2023/01/11 00:28:42;;;;;;;13.30;8.95;;;;;;;10.84;100.00;100428.84;2615578;36;20448;-59
2023/01/11 00:31:10;;;;;;;14.13;9.25;;;;;;;10.91;100.00;100421.03;2614755;36;20034;-59
2023/01/11 00:33:39;;;;;;;16.83;9.52;;;;;;;10.86;100.00;100423.31;2614539;36;20035;-59
2023/01/11 00:36:08;;;;;;;13.67;8.30;;;;;;;10.93;100.00;100418.19;2631948;31;20034;-58
2023/01/11 00:38:50;;;;;;;14.55;8.77;;;;;;;11.03;100.00;100427.06;2615131;36;20030;-59
2023/01/11 00:49:25;;;;;;;13.52;8.93;;;;;;;11.04;100.00;100423.38;2614720;36;20030;-59
2023/01/11 00:51:54;;;;;;;20.10;9.73;;;;;;;11.15;100.00;100425.88;2615212;36;20034;-58
2023/01/11 00:54:22;;;;;;;13.73;9.55;;;;;;;11.20;100.00;100418.19;2614556;36;20031;-59
2023/01/11 00:56:53;;;;;;;14.60;9.00;;;;;;;11.26;100.00;100416.72;2615008;36;20042;-59
2023/01/11 00:59:21;;;;;;;12.55;8.40;;;;;;;11.32;100.00;100409.88;2614633;36;20057;-59
2023/01/11 01:01:50;;;;;;;14.87;9.30;;;;;;;11.27;100.00;100418.41;2613215;36;20397;-58
2023/01/11 01:04:18;;;;;;;14.10;9.93;;;;;;;11.30;100.00;100409.19;2614433;36;20306;-58
2023/01/11 01:06:48;;;;;;;20.05;9.45;;;;;;;11.36;100.00;100408.59;2614413;36;20028;-59
2023/01/11 01:09:16;;;;;;;15.10;9.13;;;;;;;11.26;100.00;100400.56;2614936;36;20045;-60
2023/01/11 01:11:47;;;;;;;12.53;7.87;;;;;;;11.38;100.00;100409.25;2614991;36;20089;-60
2023/01/11 01:14:28;;;;;;;12.70;8.88;;;;;;;11.34;100.00;100407.91;2614976;36;20035;-59
2023/01/11 01:17:00;;;;;;;14.13;8.52;;;;;;;11.38;100.00;100409.25;2614973;36;20061;-59
2023/01/11 01:19:29;;;;;;;13.68;7.95;;;;;;;11.28;100.00;100395.00;2614765;36;20030;-59
2023/01/11 01:21:57;;;;;;;;;;;;;;;11.31;100.00;100408.22;2615792;36;20442;-61
2023/01/11 01:24:27;;;;;;;12.63;8.05;;;;;;;11.35;100.00;100405.06;2613378;36;19950;-60
2023/01/11 01:26:56;;;;;;;11.75;8.20;;;;;;;11.41;100.00;100408.97;2614694;36;20023;-59
2023/01/11 01:29:27;;;;;;;11.60;6.83;;;;;;;11.35;100.00;100410.44;2615057;36;20034;-58
2023/01/11 01:31:55;;;;;;;10.32;7.88;;;;;;;11.26;100.00;100415.88;2614574;36;20030;-60
2023/01/11 01:34:24;;;;;;;14.37;8.50;;;;;;;11.36;100.00;100422.88;2615304;31;20043;-59
2023/01/11 01:36:52;;;;;;;11.00;7.65;;;;;;;11.37;100.00;100418.38;2616017;36;20287;-59
2023/01/11 01:39:20;;;;;;;11.73;8.03;;;;;;;11.44;100.00;100429.38;2615945;31;20637;-59
2023/01/11 01:41:49;;;;;;;10.57;7.13;;;;;;;11.35;100.00;100429.28;2615087;36;20845;-59
2023/01/11 01:44:47;;;;;;;11.48;6.63;;;;;;;11.54;100.00;100435.53;2616728;31;20085;-58
2023/01/11 01:47:19;;;;;;;9.40;7.00;;;;;;;11.55;100.00;100434.53;2615358;36;20030;-59
2023/01/11 01:49:50;;;;;;;9.50;6.43;;;;;;;11.55;100.00;100427.28;2614743;36;20045;-58
2023/01/11 01:52:18;;;;;;;8.20;6.05;;;;;;;11.54;100.00;100430.16;2615448;31;20038;-58
2023/01/11 01:54:50;;;;;;;8.40;6.25;;;;;;;11.66;100.00;100430.75;2615817;36;20038;-58
2023/01/11 01:57:23;;;;;;;12.95;7.75;;;;;;;11.81;100.00;100429.25;2632905;36;20030;-58
2023/01/11 01:59:54;;;;;;;9.10;6.53;;;;;;;11.60;100.00;100428.69;2615608;36;20563;-59
2023/01/11 02:02:27;;;;;;;9.20;6.18;;;;;;;11.68;100.00;100429.63;2615498;36;20770;-59
2023/01/11 02:04:58;;;;;;;7.50;5.72;;;;;;;11.67;100.00;100427.91;2615614;31;20046;-58
2023/01/11 02:07:32;;;;;;;9.45;5.40;;;;;;;11.70;100.00;100430.34;2615623;36;20740;-58
2023/01/11 02:10:05;;;;;;;8.55;5.03;;;;;;;11.58;100.00;100437.78;2614913;31;20022;-59
2023/01/11 02:12:38;;;;;;;7.07;4.90;;;;;;;11.68;100.00;100436.88;2615600;36;20045;-58
2023/01/11 02:15:08;;;;;;;6.45;5.00;;;;;;;11.65;100.00;100438.00;2615708;36;20081;-58
2023/01/11 02:17:39;;;;;;;6.50;5.05;;;;;;;11.62;100.00;100426.72;2615414;31;20409;-59
2023/01/11 02:20:21;;;;;;;6.88;4.45;;;;;;;11.77;100.00;100430.53;2615411;36;20787;-59
2023/01/11 02:23:14;;;;;;;6.82;4.28;;;;;;;11.86;100.00;100435.00;2615719;31;20061;-58
2023/01/11 02:26:08;;;;;;;7.25;4.40;;;;;;;11.79;100.00;100438.47;2615189;36;20059;-59
2023/01/11 02:28:43;;;;;;;7.25;4.50;;;;;;;11.81;100.00;100440.03;2615317;36;20042;-59
2023/01/11 02:31:19;;;;;;;5.80;4.20;;;;;;;11.89;100.00;100431.16;2614750;36;20030;-59
2023/01/11 02:33:56;;;;;;;6.38;3.67;;;;;;;11.82;100.00;100441.72;2614570;36;20029;-59
2023/01/11 02:36:30;;;;;;;5.90;4.00;;;;;;;11.83;100.00;100440.69;2614314;31;20041;-59
2023/01/11 02:39:16;;;;;;;6.38;4.03;;;;;;;11.96;100.00;100434.13;2615228;36;20583;-57
2023/01/11 02:47:27;;;;;;;5.82;3.80;;;;;;;11.83;100.00;100439.88;2614741;36;20034;-58
2023/01/11 02:50:05;;;;;;;4.13;3.08;;;;;;;11.75;100.00;100432.56;2614632;36;20041;-59
2023/01/11 02:52:40;;;;;;;4.88;3.55;;;;;;;11.89;100.00;100428.47;2614767;36;20035;-59
2023/01/11 02:55:14;;;;;;;3.92;3.00;;;;;;;11.81;100.00;100431.09;2615144;36;20045;-58
2023/01/11 02:57:46;;;;;;;5.03;3.13;;;;;;;11.84;100.00;100441.56;2615142;36;20586;-59
2023/01/11 03:00:20;;;;;;;6.95;3.10;;;;;;;11.92;100.00;100445.19;2617105;31;20041;-59
2023/01/11 03:03:07;;;;;;;4.30;3.08;;;;;;;11.83;100.00;100446.09;2614364;36;20435;-59
2023/01/11 03:05:39;;;;;;;5.72;3.83;;;;;;;11.99;100.00;100444.59;2615129;36;20038;-59
2023/01/11 03:08:20;;;;;;;3.58;2.72;;;;;;;12.02;100.00;100460.47;2614945;36;20045;-58
2023/01/11 03:10:58;;;;;;;5.30;3.03;;;;;;;11.98;100.00;100454.50;2614427;36;20038;-59
2023/01/11 03:13:49;;;;;;;4.30;3.37;;;;;;;12.04;100.00;100453.91;2614917;36;20038;-58
2023/01/11 03:16:35;;;;;;;4.80;3.78;;;;;;;11.91;100.00;100456.97;2614689;36;20045;-58
2023/01/11 03:19:19;;;;;;;5.07;3.53;;;;;;;11.97;100.00;100452.84;2614344;36;20029;-60
2023/01/11 03:21:54;;;;;;;4.30;3.60;;;;;;;12.05;100.00;100454.75;2614527;36;20026;-59
2023/01/11 03:24:32;;;;;;;5.65;4.22;;;;;;;12.05;100.00;100460.16;2614515;36;20035;-59
2023/01/11 03:27:11;;;;;;;5.18;4.18;;;;;;;11.99;100.00;100460.78;2613840;36;20057;-58
2023/01/11 03:29:45;;;;;;;6.65;4.72;;;;;;;11.90;100.00;100468.75;2614055;36;20045;-58
2023/01/11 03:32:25;;;;;;;8.52;5.47;;;;;;;12.00;100.00;100470.53;2614390;31;20022;-59
2023/01/11 03:35:03;;;;;;;8.50;5.68;;;;;;;12.13;100.00;100472.84;2614285;36;20038;-58
2023/01/11 03:37:37;;;;;;;8.52;5.65;;;;;;;12.16;100.00;100468.00;2615207;36;20034;-59
2023/01/11 03:40:13;;;;;;;8.93;5.25;;;;;;;12.18;100.00;100475.94;2614923;36;20065;-59
2023/01/11 03:45:29;;;;;;;8.52;5.93;;;;;;;12.22;100.00;100478.16;2614541;36;20572;-60
2023/01/11 03:48:03;;;;;;;8.32;6.35;;;;;;;12.24;100.00;100470.75;2614222;36;20047;-59
2023/01/11 03:50:33;;;;;;;13.60;7.10;;;;;;;12.23;100.00;100474.47;2614679;36;20049;-59
2023/01/11 03:53:05;;;;;;;10.50;6.32;;;;;;;12.25;100.00;100475.16;2614105;36;20045;-59
2023/01/11 03:55:38;;;;;;;13.13;6.75;;;;;;;12.37;100.00;100470.34;2614149;36;20042;-59
2023/01/11 03:58:10;;;;;;;9.13;6.32;;;;;;;12.42;100.00;100468.00;2615564;31;20554;-59
2023/01/11 04:00:39;;;;;;;13.25;6.95;;;;;;;12.29;100.00;100472.97;2614862;36;20038;-59
2023/01/11 04:03:13;;;;;;;11.98;6.38;;;;;;;12.30;100.00;100480.06;2614517;36;20042;-58
2023/01/11 04:05:44;;;;;;;15.27;6.93;;;;;;;12.40;100.00;100480.84;2633146;36;20039;-59
2023/01/11 04:08:13;;;;;;;12.48;6.40;;;;;;;12.43;100.00;100479.69;2615076;36;20037;-60
2023/01/11 04:10:41;;;;;;;12.18;7.25;;;;;;;12.38;100.00;100476.59;2614841;36;20034;-59
2023/01/11 04:13:10;;;;;;;8.80;6.22;;;;;;;12.35;100.00;100476.91;2614916;36;20034;-60
2023/01/11 04:15:40;;;;;;;10.93;6.88;;;;;;;12.35;100.00;100479.59;2615251;36;20037;-60
2023/01/11 04:18:11;;;;;;;13.25;6.78;;;;;;;12.32;100.00;100482.63;2614268;36;20062;-59
2023/01/11 04:20:41;;;;;;;15.43;6.95;;;;;;;12.27;100.00;100492.03;2615065;36;20065;-60
2023/01/11 04:23:11;;;;;;;15.68;6.35;;;;;;;12.32;100.00;100504.22;2615020;36;20035;-60
2023/01/11 04:25:39;;;;;;;13.93;6.25;;;;;;;12.29;100.00;100507.22;2614997;36;20026;-60
2023/01/11 04:28:07;;;;;;;11.60;5.97;;;;;;;12.31;100.00;100502.50;2614962;36;20038;-59
2023/01/11 04:30:36;;;;;;;9.03;6.00;;;;;;;12.25;100.00;100499.44;2615063;31;20030;-57
2023/01/11 04:33:05;;;;;;;9.23;5.43;;;;;;;12.30;100.00;100501.66;2615016;36;20519;-59
2023/01/11 04:35:36;;;;;;;8.63;4.82;;;;;;;12.30;100.00;100500.84;2614831;36;20053;-60
2023/01/11 04:38:04;;;;;;;13.43;5.82;;;;;;;12.23;100.00;100506.84;2615003;36;20022;-59
2023/01/11 04:40:35;;;;;;;9.73;5.07;;;;;;;12.30;100.00;100517.03;2614641;36;20073;-59
2023/01/11 04:43:01;;;;;;;12.18;5.07;;;;;;;12.24;100.00;100530.13;2615270;36;20023;-58
2023/01/11 04:45:29;;;;;;;12.10;5.03;;;;;;;12.23;100.00;100532.97;2615641;36;20116;-59
2023/01/11 04:47:58;;;;;;;8.75;4.53;;;;;;;12.21;100.00;100530.44;2614357;36;20042;-59
2023/01/11 04:50:28;;;;;;;17.67;5.35;;;;;;;12.25;100.00;100520.19;2615009;36;20042;-59
2023/01/11 04:52:59;;;;;;;9.63;4.70;;;;;;;12.34;100.00;100531.91;2615347;36;20038;-60
2023/01/11 04:55:28;;;;;;;12.82;4.60;;;;;;;12.40;100.00;100534.81;2614755;36;20038;-59
2023/01/11 04:57:56;;;;;;;12.50;4.40;;;;;;;12.32;100.00;100526.63;2615124;36;20830;-59
2023/01/11 05:00:25;;;;;;;10.50;4.17;;;;;;;12.50;100.00;100528.47;2613766;36;20051;-59
2023/01/11 05:02:53;;;;;;;8.63;3.78;;;;;;;12.40;100.00;100528.56;2616447;36;20037;-58
2023/01/11 05:05:22;;;;;;;11.70;4.27;;;;;;;12.42;100.00;100526.56;2615552;36;20760;-58
2023/01/11 05:07:52;;;;;;;16.48;5.90;;;;;;;12.44;100.00;100535.38;2615323;36;20034;-59
2023/01/11 05:10:23;;;;;;;10.90;3.55;;;;;;;12.30;100.00;100534.06;2615021;31;20540;-58
2023/01/11 05:12:52;;;;;;;17.10;4.05;;;;;;;12.23;100.00;100539.25;2615767;31;20562;-60
2023/01/11 05:15:23;;;;;;;12.75;3.70;;;;;;;12.27;100.00;100543.28;2615668;36;20030;-58
2023/01/11 05:17:51;;;;;;;15.90;3.15;;;;;;;12.21;100.00;100540.38;2615069;36;20031;-58
2023/01/11 05:20:19;;;;;;;11.02;2.53;;;;;;;12.17;100.00;100544.38;2615447;36;20042;-58
2023/01/11 05:22:48;;;;;;;14.13;3.80;;;;;;;12.30;100.00;100539.44;2616655;36;20416;-59
2023/01/11 05:25:17;;;;;;;12.35;2.92;;;;;;;12.19;100.00;100548.63;2615456;36;20039;-59
2023/01/11 05:27:48;;;;;;;11.43;3.72;;;;;;;12.22;100.00;100548.31;2615331;36;20029;-60
2023/01/11 05:30:17;;;;;;;12.25;2.80;;;;;;;12.23;100.00;100550.03;2615293;36;20555;-59
2023/01/11 05:32:45;;;;;;;19.48;3.88;;;;;;;12.24;100.00;100550.88;2615130;36;20531;-60
2023/01/11 05:35:17;;;;;;;20.88;3.22;;;;;;;12.39;100.00;100562.78;2615437;36;20023;-59
2023/01/11 05:37:45;;;;;;;12.45;3.35;;;;;;;12.28;100.00;100557.66;2615030;36;20034;-59
2023/01/11 05:40:14;;;;;;;12.57;3.10;;;;;;;12.32;100.00;100567.13;2615364;36;20069;-60
2023/01/11 05:42:42;;;;;;;16.80;3.30;;;;;;;12.19;100.00;100556.72;2615854;36;20030;-59
2023/01/11 05:47:55;;;;;;;10.85;3.40;;;;;;;12.26;100.00;100574.00;2615055;36;20630;-59
2023/01/11 05:50:23;;;;;;;14.02;3.42;;;;;;;12.25;100.00;100568.75;2615408;36;20030;-59
2023/01/11 05:52:52;;;;;;;18.48;3.55;;;;;;;12.08;100.00;100581.22;2615984;36;20045;-59
2023/01/11 05:55:20;;;;;;;19.50;4.63;;;;;;;12.07;100.00;100583.09;2616040;36;20041;-60
2023/01/11 05:57:49;;;;;;;14.55;3.03;;;;;;;12.12;100.00;100579.94;2615902;36;20044;-60
2023/01/11 06:00:24;;;;;;;17.73;4.70;;;;;;;12.09;100.00;100580.25;2615282;36;20141;-59
2023/01/11 06:02:52;;;;;;;20.55;2.72;;;;;;;12.12;100.00;100585.31;2615524;36;20126;-60
2023/01/11 06:05:21;;;;;;;13.40;2.72;;;;;;;12.02;100.00;100585.38;2614339;36;20030;-57
2023/01/11 06:07:49;;;;;;;16.95;3.80;;;;;;;12.14;100.00;100594.09;2616314;36;20544;-58
2023/01/11 06:10:18;;;;;;;18.15;3.47;;;;;;;12.11;100.00;100588.19;2615700;36;20034;-58
2023/01/11 06:12:46;;;;;;;11.00;2.70;;;;;;;12.06;100.00;100585.94;2616234;31;20035;-58
2023/01/11 06:15:15;;;;;;;15.43;3.13;;;;;;;12.05;100.00;100589.63;2615081;31;20031;-59
2023/01/11 06:17:46;;;;;;;18.23;2.70;;;;;;;11.98;100.00;100588.53;2615056;36;20030;-59
2023/01/11 06:20:14;;;;;;;29.25;3.58;;;;;;;11.97;100.00;100600.31;2614044;36;20303;-59
2023/01/11 06:22:43;;;;;;;12.18;2.55;;;;;;;11.94;100.00;100595.22;2616489;36;20022;-59
2023/01/11 06:25:11;;;;;;;19.77;3.33;;;;;;;11.91;100.00;100599.91;2615578;36;20038;-59
2023/01/11 06:27:40;;;;;;;16.05;3.17;;;;;;;11.91;100.00;100615.22;2615404;36;20027;-59
2023/01/11 06:30:09;;;;;;;15.35;3.55;;;;;;;11.80;100.00;100621.69;2614269;36;20061;-59
2023/01/11 06:32:38;;;;;;;11.98;3.00;;;;;;;11.76;100.00;100625.66;2616102;36;20038;-59
2023/01/11 06:35:10;;;;;;;14.83;2.90;;;;;;;11.69;100.00;100621.88;2616111;36;20027;-59
2023/01/11 06:37:38;;;;;;;10.05;2.97;;;;;;;11.65;100.00;100624.03;2616853;36;20038;-58
2023/01/11 06:40:07;;;;;;;14.25;2.95;;;;;;;11.67;100.00;100624.72;2614614;31;20023;-58
2023/01/11 06:42:36;;;;;;;17.20;3.25;;;;;;;11.64;100.00;100632.25;2615724;36;20038;-59
2023/01/11 06:45:06;;;;;;;16.98;3.10;;;;;;;11.49;100.00;100640.81;2615899;36;20404;-59
2023/01/11 06:47:35;;;;;;;17.10;3.70;;;;;;;11.52;100.00;100643.22;2616521;36;20491;-59
2023/01/11 06:50:03;;;;;;;13.90;2.47;;;;;;;11.49;100.00;100638.13;2615394;36;20038;-59
2023/01/11 06:52:34;;;;;;;17.42;3.78;;;;;;;11.47;100.00;100645.53;2613038;36;20023;-58
2023/01/11 06:55:02;;;;;;;15.73;3.25;;;;;;;11.43;100.00;100648.66;2615401;36;20030;-60
2023/01/11 06:57:32;;;;;;;13.77;2.45;;;;;;;11.35;100.00;100647.56;2615361;36;20528;-59
2023/01/11 07:00:00;;;;;;;12.80;2.70;;;;;;;11.34;100.00;100655.78;2615866;36;20094;-59
2023/01/11 07:02:29;;;;;;;14.95;2.15;;;;;;;11.26;100.00;100658.34;2615766;36;20128;-58
2023/01/11 07:04:57;;;;;;;19.48;3.25;;;;;;;11.29;100.00;100660.75;2615582;36;20034;-59
2023/01/11 07:07:27;;;;;;;20.20;3.65;;;;;;;11.11;100.00;100663.34;2616860;31;20455;-59
2023/01/11 07:09:58;;;;;;;16.05;2.47;;;;;;;11.17;100.00;100665.44;2615352;36;20029;-60
2023/01/11 07:12:26;;;;;;;13.40;2.92;;;;;;;11.15;100.00;100665.59;2616265;31;20416;-60
2023/01/11 07:14:55;;;;;;;9.75;2.20;;;;;;;11.12;100.00;100668.59;2616485;36;20043;-59
2023/01/11 07:17:23;;;;;;;9.80;2.70;;;;;;;11.16;100.00;100670.00;2615408;36;20038;-60
2023/01/11 07:19:51;;;;;;;21.15;3.03;;;;;;;11.10;100.00;100683.19;2616602;36;20423;-61
2023/01/11 07:22:21;;;;;;;12.38;2.42;;;;;;;11.00;100.00;100685.91;2616426;33;20035;-59
2023/01/11 07:24:49;;;;;;;;;;;;;;;11.11;100.00;100672.25;2616289;36;20651;-59
2023/01/11 07:27:21;;;;;;;18.50;2.88;;;;;;;10.96;100.00;100681.78;2615371;36;19953;-58
2023/01/11 07:29:51;;;;;;;13.00;2.45;;;;;;;10.89;100.00;100684.19;2616280;36;20046;-58
2023/01/11 07:32:20;;;;;;;16.95;2.92;;;;;;;10.84;100.00;100690.00;2615066;36;20523;-59
2023/01/11 07:34:48;;;;;;;11.32;2.60;;;;;;;10.82;100.00;100697.38;2615353;36;20041;-59
2023/01/11 07:37:16;;;;;;;14.43;2.30;;;;;;;10.68;100.00;100712.09;2616443;31;20026;-59
2023/01/11 07:39:45;;;;;;;16.55;3.22;;;;;;;10.66;100.00;100715.94;2616247;36;20030;-60
2023/01/11 07:44:57;;;;;;;8.85;2.58;;;;;;;10.67;100.00;100745.41;2616013;36;20023;-58
2023/01/11 07:47:26;;;;;;;16.63;2.50;;;;;;;10.60;100.00;100744.25;2615454;36;20030;-59
2023/01/11 07:49:54;;;;;;;8.07;2.10;;;;;;;10.65;100.00;100746.53;2615132;36;20570;-60
2023/01/11 07:52:23;;;;;;;16.07;3.00;;;;;;;10.59;100.00;100752.47;2616296;36;20034;-58
2023/01/11 07:54:51;;;;;;;15.50;2.13;;;;;;;10.64;100.00;100752.91;2615745;36;20039;-60
2023/01/11 07:57:19;;;;;;;12.23;2.28;;;;;;;10.54;100.00;100749.34;2616234;36;20030;-59
2023/01/11 07:59:48;;;;;;;20.95;2.42;;;;;;;10.49;100.00;100755.97;2616302;36;20034;-58
2023/01/11 08:02:19;;;;;;;19.25;2.47;;;;;;;10.63;100.00;100760.13;2613776;31;20030;-58
2023/01/11 08:04:47;;;;;;;13.32;2.90;;;;;;;10.61;100.00;100761.25;2616132;31;20432;-58
2023/01/11 08:07:15;;;;;;;10.43;2.67;;;;;;;10.54;100.00;100757.41;2617046;31;20496;-59
2023/01/11 08:09:44;;;;;;;13.45;3.17;;;;;;;10.55;100.00;100778.81;2615393;36;20120;-58
2023/01/11 08:14:53;;;;;;;19.65;4.13;;;;;;;10.55;100.00;100783.34;2616433;36;20061;-58
2023/01/11 08:17:24;;;;;;;11.27;2.28;;;;;;;10.35;100.00;100772.53;2616079;31;20038;-58
2023/01/11 08:19:54;;;;;;;15.00;2.47;;;;;;;10.42;100.00;100786.28;2615556;36;20069;-58
2023/01/11 08:22:22;;;;;;;19.55;3.35;;;;;;;10.40;100.00;100797.16;2615803;36;20666;-59
2023/01/11 08:24:51;;;;;;;16.08;2.53;;;;;;;10.36;100.00;100784.97;2616218;36;20031;-59
2023/01/11 08:27:19;;;;;;;19.30;3.45;;;;;;;10.34;100.00;100785.13;2615979;36;20045;-57
2023/01/11 08:29:47;;;;;;;17.33;2.58;;;;;;;10.22;100.00;100793.38;2616069;36;20035;-58
2023/01/11 08:32:16;;;;;;;10.60;2.00;;;;;;;10.29;100.00;100789.16;2615304;36;20631;-58
2023/01/11 08:34:47;;;;;;;16.58;2.67;;;;;;;10.18;100.00;100799.03;2615287;36;20023;-58
2023/01/11 08:37:15;;;;;;;15.55;2.17;;;;;;;10.06;100.00;100797.44;2616144;36;20026;-58
2023/01/11 08:39:43;;;;;;;12.70;2.67;;;;;;;10.13;100.00;100812.03;2616412;36;20463;-58
2023/01/11 08:42:12;;;;;;;8.00;2.00;;;;;;;10.06;100.00;100793.91;2614812;36;20447;-59
2023/01/11 08:44:40;;;;;;;19.53;2.43;;;;;;;10.10;100.00;100808.75;2616177;36;20029;-58
2023/01/11 08:47:09;;;;;;;16.25;3.10;;;;;;;10.00;100.00;100814.94;2615773;36;20315;-58
2023/01/11 08:49:37;;;;;;;12.97;2.30;;;;;;;9.97;100.00;100822.44;2614976;36;20038;-59
2023/01/11 08:52:08;;;;;;;13.70;2.30;;;;;;;9.92;100.00;100824.66;2616603;31;20435;-59
2023/01/11 08:54:36;;;;;;;15.00;1.95;;;;;;;9.80;100.00;100831.94;2615857;36;20033;-58
2023/01/11 08:57:05;;;;;;;15.40;2.85;;;;;;;9.82;100.00;100840.75;2617167;31;20810;-59
2023/01/11 08:59:33;;;;;;;17.00;2.63;;;;;;;9.78;100.00;100842.84;2615945;36;20049;-59
2023/01/11 09:02:01;;;;;;;16.13;2.17;;;;;;;9.80;100.00;100848.94;2615745;36;20031;-58
2023/01/11 09:04:30;;;;;;;17.35;2.60;;;;;;;9.78;100.00;100856.28;2615432;36;20054;-58
2023/01/11 09:06:59;;;;;;;11.95;2.20;;;;;;;9.76;100.00;100857.38;2616441;31;20027;-57
2023/01/11 09:09:30;;;;;;;13.23;2.92;;;;;;;9.67;100.00;100853.63;2615673;36;20038;-58
2023/01/11 09:12:01;;;;;;;11.30;2.67;;;;;;;9.70;100.00;100855.22;2615892;36;20027;-59
2023/01/11 09:14:30;;;;;;;20.23;2.35;;;;;;;9.74;100.00;100862.03;2616347;36;20037;-60
2023/01/11 09:16:59;;;;;;;18.92;2.88;;;;;;;9.68;100.00;100858.03;2616134;36;20430;-57
2023/01/11 09:19:28;;;;;;;11.27;2.45;;;;;;;9.79;100.00;100860.69;2613717;36;20038;-59
2023/01/11 09:22:00;;;;;;;17.30;2.42;;;;;;;9.70;100.00;100869.53;2614484;36;20042;-58
2023/01/11 09:24:32;;;;;;;10.93;2.55;;;;;;;9.78;100.00;100868.88;2612608;36;20492;-59
2023/01/11 09:27:01;;;;;;;18.58;2.97;;;;;;;9.81;100.00;100860.53;2615492;36;20486;-58
2023/01/11 09:29:29;;;;;;;17.00;2.65;;;;;;;9.79;100.00;100863.38;2615396;36;20129;-59
2023/01/11 09:31:58;;;;;;;20.58;2.60;;;;;;;9.74;100.00;100879.00;2615196;31;20042;-59
2023/01/11 09:34:26;;;;;;;16.85;3.50;;;;;;;9.71;100.00;100879.28;2614420;36;20022;-58
2023/01/11 09:36:55;;;;;;;11.23;3.17;;;;;;;9.85;100.00;100869.19;2615783;36;20177;-59
2023/01/11 09:39:26;;;;;;;20.50;2.85;;;;;;;9.94;100.00;100871.94;2615858;36;20022;-59
2023/01/11 09:42:19;;;;;;;16.45;2.90;;;;;;;10.05;100.00;100873.69;2615934;36;20035;-58
2023/01/11 09:44:53;;;;;;;18.75;3.47;;;;;;;9.93;100.00;100875.63;2615757;36;20417;-58
2023/01/11 09:47:35;;;;;;;20.02;3.33;;;;;;;9.87;100.00;100870.78;2615090;36;20031;-58
2023/01/11 09:50:08;;;;;;;16.95;2.75;;;;;;;9.93;100.00;100869.41;2615051;31;20563;-58
2023/01/11 09:52:39;;;;;;;15.80;3.25;;;;;;;9.99;100.00;100868.84;2615842;36;20038;-58
2023/01/11 09:55:14;;;;;;;17.65;3.38;;;;;;;9.92;100.00;100862.31;2616368;31;20042;-59
2023/01/11 09:58:08;;;;;;;17.02;3.13;;;;;;;9.97;100.00;100870.84;2615996;36;20126;-57
2023/01/11 10:00:50;;;;;;;10.55;2.78;;;;;;;9.96;100.00;100863.75;2615309;31;20022;-57
2023/01/11 10:03:57;;;;;;;12.65;2.33;;;;;;;9.88;100.00;100874.28;2615402;36;20536;-58
2023/01/11 10:06:30;;;;;;;17.00;3.08;;;;;;;9.98;100.00;100884.16;2615045;31;20030;-58
2023/01/11 10:09:16;;;;;;;20.85;3.72;;;;;;;10.07;100.00;100878.94;2616126;36;20030;-58
2023/01/11 10:11:54;;;;;;;15.70;2.58;;;;;;;9.94;100.00;100873.78;2616137;36;20030;-58
2023/01/11 10:14:42;;;;;;;12.82;3.13;;;;;;;10.13;100.00;100887.34;2616181;36;20121;-58
2023/01/11 10:17:20;;;;;;;16.20;2.50;;;;;;;10.21;100.00;100886.69;2616085;36;20026;-59
2023/01/11 10:19:55;;;;;;;13.35;2.53;;;;;;;10.21;100.00;100893.91;2616022;31;20560;-57
2023/01/11 10:22:31;;;;;;;19.73;3.45;;;;;;;10.07;100.00;100892.41;2616522;36;20568;-58
2023/01/11 10:25:09;;;;;;;24.52;3.33;;;;;;;10.09;100.00;100893.97;2616099;36;20029;-59
2023/01/11 10:27:43;;;;;;;19.10;3.03;;;;;;;10.28;100.00;100895.94;2617140;36;20456;-59
2023/01/11 10:33:17;;;;;;;13.50;2.92;;;;;;;9.90;100.00;100888.47;2615701;36;20031;-59
2023/01/11 10:36:09;;;;;;;15.45;2.63;;;;;;;9.89;100.00;100894.84;2616458;36;20030;-59
2023/01/11 10:38:56;;;;;;;18.58;2.70;;;;;;;10.01;100.00;100904.53;2616238;36;20035;-58
2023/01/11 10:41:32;;;;;;;12.70;2.95;;;;;;;10.05;100.00;100905.97;2616941;31;21007;-57
2023/01/11 10:44:11;;;;;;;19.38;3.03;;;;;;;10.07;100.00;100900.47;2616418;36;20046;-58
2023/01/11 10:46:46;;;;;;;9.98;2.20;;;;;;;10.06;100.00;100912.22;2616525;36;20045;-58
2023/01/11 10:49:31;;;;;;;13.75;3.10;;;;;;;10.13;100.00;100916.09;2615808;36;20546;-59
2023/01/11 10:52:04;;;;;;;14.73;2.90;;;;;;;10.11;100.00;100910.81;2616621;36;20039;-57
2023/01/11 10:54:36;;;;;;;10.52;2.38;;;;;;;10.10;100.00;100909.13;2616380;36;20030;-58
2023/01/11 10:57:14;;;;;;;14.75;2.15;;;;;;;10.19;100.00;100912.88;2616770;36;20026;-58
2023/01/11 11:00:04;;;;;;;18.75;2.25;;;;;;;10.17;100.00;100899.56;2615904;36;20030;-58
2023/01/11 11:03:05;;;;;;;19.90;4.20;;;;;;;10.06;100.00;100896.94;2616258;31;20518;-57
2023/01/11 11:05:42;;;;;;;13.23;2.30;;;;;;;10.22;100.00;100901.84;2615300;36;20026;-58
2023/01/11 11:08:15;;;;;;;21.30;2.30;;;;;;;10.27;100.00;100894.22;2614921;36;20082;-57
2023/01/11 11:10:52;;;;;;;18.58;3.00;;;;;;;10.39;100.00;100902.25;2614848;36;20035;-57
2023/01/11 11:13:32;;;;;;;12.13;2.05;;;;;;;10.46;100.00;100900.72;2616282;36;20038;-59
2023/01/11 11:16:06;;;;;;;11.65;2.42;;;;;;;10.50;100.00;100900.31;2615797;36;20034;-53
2023/01/11 11:18:37;;;;;;;17.30;2.65;;;;;;;10.51;100.00;100902.03;2613910;31;20022;-59
2023/01/11 11:21:12;;;;;;;16.10;2.35;;;;;;;10.54;100.00;100903.59;2617167;36;20577;-58
2023/01/11 11:23:40;;;;;;;19.17;2.60;;;;;;;10.66;100.00;100899.81;2616691;31;20467;-58
2023/01/11 11:26:11;;;;;;;17.33;2.20;;;;;;;10.55;100.00;100896.38;2615706;36;20058;-57
2023/01/11 11:28:39;;;;;;;16.50;2.33;;;;;;;10.56;100.00;100900.78;2614905;36;20034;-57
2023/01/11 11:31:12;;;;;;;16.08;3.03;;;;;;;10.59;100.00;100903.19;2616617;36;20605;-57
2023/01/11 11:33:48;;;;;;;12.35;2.28;;;;;;;10.65;100.00;100891.88;2615183;36;20033;-56
2023/01/11 11:36:16;;;;;;;11.25;2.80;;;;;;;10.56;100.00;100892.69;2616615;36;20026;-57
2023/01/11 11:39:04;;;;;;;9.77;2.30;;;;;;;10.67;100.00;100906.03;2615329;36;20045;-57
2023/01/11 11:41:47;;;;;;;12.93;2.38;;;;;;;10.60;100.00;100904.88;2611422;36;20042;-56
2023/01/11 11:44:23;;;;;;;19.85;2.97;;;;;;;10.70;100.00;100908.47;2631621;36;20137;-58
2023/01/11 11:47:05;;;;;;;13.63;2.38;;;;;;;10.58;100.00;100909.56;2615358;36;20345;-58
2023/01/11 11:49:38;;;;;;;9.00;2.35;;;;;;;10.55;100.00;100910.66;2614959;36;20023;-58
2023/01/11 11:52:08;;;;;;;14.98;2.63;;;;;;;10.48;100.00;100915.75;2613546;36;20157;-59
2023/01/11 11:54:42;;;;;;;14.07;2.42;;;;;;;10.67;100.00;100916.81;2615310;36;20026;-58
2023/01/11 11:57:17;;;;;;;17.05;2.28;;;;;;;10.65;100.00;100924.19;2615634;36;20054;-58
2023/01/11 11:59:50;;;;;;;15.18;2.47;;;;;;;10.55;100.00;100918.75;2634354;36;20571;-58
2023/01/11 12:02:29;;;;;;;6.38;1.90;;;;;;;10.66;100.00;100915.13;2614449;36;20162;-55
2023/01/11 12:05:05;;;;;;;13.50;2.22;;;;;;;10.63;100.00;100912.69;2614820;31;20030;-57
2023/01/11 12:07:37;;;;;;;13.30;2.75;;;;;;;10.56;100.00;100916.94;2615755;36;20033;-57
2023/01/11 12:10:12;;;;;;;21.05;3.15;;;;;;;10.60;100.00;100907.56;2615400;36;20038;-58